Time;durP1;ratioP1;P1;durP2;ratioP2;P2;SDS_P1;SDS_P2;PMS_P1;PMS_P2;Temp;Humidity;BMP_temperature;BMP_pressure;BME280_temperature;BME280_humidity;BME280_pressure;Samples;Min_cycle;Max_cycle;Signal;HPM_P1;HPM_P2
2021/12/02 00:00:40;;;;;;;7.90;2.00;;;6.80;99.90;;;;;;4172229;28;20133;-62
2021/12/02 00:02:40;;;;;;;5.65;1.75;;;6.80;99.90;;;;;;4176061;28;20029;-62
2021/12/02 00:04:43;;;;;;;4.97;1.60;;;6.80;99.90;;;;;;4177835;28;20112;-62
2021/12/02 00:06:44;;;;;;;7.10;1.77;;;6.70;99.90;;;;;;4170105;28;20029;-61
2021/12/02 00:08:46;;;;;;;5.80;1.70;;;6.80;99.90;;;;;;4174056;28;20563;-61
2021/12/02 00:10:47;;;;;;;;;;;6.80;99.90;;;;;;4172673;28;20392;-61
2021/12/02 00:12:49;;;;;;;3.30;1.35;;;6.70;99.90;;;;;;4170640;28;19909;-63
2021/12/02 00:14:51;;;;;;;6.47;1.50;;;6.80;99.90;;;;;;4179100;28;20055;-62
2021/12/02 00:17:04;;;;;;;4.43;2.03;;;6.80;99.90;;;;;;4171542;28;20041;-62
2021/12/02 00:21:26;;;;;;;7.65;2.10;;;6.80;99.90;;;;;;4167527;28;20395;-62
2021/12/02 00:23:37;;;;;;;6.97;1.70;;;6.80;99.90;;;;;;4175881;28;20112;-62
2021/12/02 00:25:38;;;;;;;5.65;1.83;;;6.80;99.90;;;;;;4173338;28;20025;-61
2021/12/02 00:27:41;;;;;;;9.68;1.90;;;6.80;99.90;;;;;;4175758;28;20432;-61
2021/12/02 00:29:44;;;;;;;7.57;2.03;;;6.80;99.90;;;;;;4175605;28;20482;-62
2021/12/02 00:31:47;;;;;;;4.97;1.83;;;6.80;99.90;;;;;;4170571;28;20021;-61
2021/12/02 00:33:54;;;;;;;10.57;2.05;;;6.80;99.90;;;;;;4169222;28;20033;-62
2021/12/02 00:35:56;;;;;;;6.78;1.80;;;6.80;99.90;;;;;;4172248;28;20033;-61
2021/12/02 00:37:58;;;;;;;6.65;1.85;;;6.80;99.90;;;;;;4173150;28;20064;-61
2021/12/02 00:39:59;;;;;;;7.80;1.95;;;6.80;99.90;;;;;;4170154;28;20041;-61
2021/12/02 00:42:00;;;;;;;4.90;1.85;;;6.80;99.90;;;;;;4169501;28;20036;-61
2021/12/02 00:44:01;;;;;;;5.75;1.77;;;6.80;99.90;;;;;;4178184;28;20364;-61
2021/12/02 00:46:05;;;;;;;9.57;2.10;;;6.80;99.90;;;;;;4175910;28;20476;-62
2021/12/02 00:48:08;;;;;;;8.90;2.00;;;6.80;99.90;;;;;;4174911;28;20141;-61
2021/12/02 00:50:09;;;;;;;9.18;2.20;;;6.80;99.90;;;;;;4174883;28;20095;-62
2021/12/02 00:52:10;;;;;;;8.15;2.03;;;6.80;99.90;;;;;;4171698;28;20037;-62
2021/12/02 00:54:12;;;;;;;13.52;2.45;;;6.70;99.90;;;;;;4177549;28;20029;-60
2021/12/02 00:56:15;;;;;;;10.35;1.95;;;6.70;99.90;;;;;;4169589;28;20072;-63
2021/12/02 00:58:19;;;;;;;;;;;6.70;99.90;;;;;;4171237;28;20395;-61
2021/12/02 01:00:20;;;;;;;4.43;1.60;;;6.70;99.90;;;;;;4173822;28;19916;-61
2021/12/02 01:02:22;;;;;;;7.30;1.95;;;6.70;99.90;;;;;;4169946;28;20018;-62
2021/12/02 01:04:24;;;;;;;4.45;1.70;;;6.70;99.90;;;;;;4172018;28;20116;-61
2021/12/02 01:06:26;;;;;;;3.77;1.70;;;6.70;99.90;;;;;;4178000;28;20021;-61
2021/12/02 01:08:27;;;;;;;7.00;2.40;;;6.70;99.90;;;;;;4171199;28;20056;-61
2021/12/02 01:10:28;;;;;;;4.10;1.85;;;6.80;99.90;;;;;;4174861;28;20033;-61
2021/12/02 01:12:28;;;;;;;7.95;2.35;;;6.80;99.90;;;;;;4152494;28;20492;-62
2021/12/02 01:14:29;;;;;;;8.90;1.85;;;6.80;99.90;;;;;;4177538;28;20037;-61
2021/12/02 01:16:30;;;;;;;6.53;2.47;;;6.80;99.90;;;;;;4166908;28;20124;-61
2021/12/02 01:18:31;;;;;;;7.65;2.35;;;6.80;99.90;;;;;;4173823;28;20061;-61
2021/12/02 01:20:32;;;;;;;8.02;2.20;;;6.80;99.90;;;;;;4164165;28;20072;-61
2021/12/02 01:22:36;;;;;;;6.45;2.42;;;6.70;99.90;;;;;;4164973;28;20049;-62
2021/12/02 01:24:39;;;;;;;8.43;2.38;;;6.70;99.90;;;;;;4169633;28;20104;-62
2021/12/02 01:26:46;;;;;;;4.78;1.85;;;6.70;99.90;;;;;;4179373;28;20025;-61
2021/12/02 01:28:49;;;;;;;7.85;2.10;;;6.70;99.90;;;;;;4174505;28;20426;-62
2021/12/02 01:30:52;;;;;;;5.30;1.65;;;6.70;99.90;;;;;;4169057;28;20120;-62
2021/12/02 01:33:04;;;;;;;7.72;2.17;;;6.70;99.90;;;;;;4167951;28;20030;-61
2021/12/02 01:35:06;;;;;;;7.55;2.00;;;6.70;99.90;;;;;;4175019;28;20386;-62
2021/12/02 01:37:10;;;;;;;5.07;1.80;;;6.70;99.90;;;;;;4173483;28;20357;-62
2021/12/02 01:39:10;;;;;;;7.70;2.30;;;6.60;99.90;;;;;;4160058;28;20084;-62
2021/12/02 01:41:11;;;;;;;6.68;1.75;;;6.60;99.90;;;;;;4174453;28;20045;-62
2021/12/02 01:43:18;;;;;;;10.70;2.13;;;6.60;99.90;;;;;;4184395;28;20378;-61
2021/12/02 01:45:28;;;;;;;4.65;1.65;;;6.50;99.90;;;;;;4180748;28;20056;-62
2021/12/02 01:47:32;;;;;;;13.95;2.40;;;6.50;99.90;;;;;;4176302;28;20451;-61
2021/12/02 01:49:39;;;;;;;5.53;2.30;;;6.50;99.90;;;;;;4173177;28;20026;-61
2021/12/02 01:51:45;;;;;;;12.18;2.22;;;6.50;99.90;;;;;;4182159;28;20028;-61
2021/12/02 01:53:50;;;;;;;7.60;1.88;;;6.40;99.90;;;;;;4182303;28;20379;-61
2021/12/02 01:55:54;;;;;;;7.15;2.10;;;6.50;99.90;;;;;;4175761;28;20033;-62
2021/12/02 01:57:59;;;;;;;5.15;1.80;;;6.50;99.90;;;;;;4172798;28;20043;-61
2021/12/02 02:00:19;;;;;;;6.00;1.63;;;6.50;99.90;;;;;;4172829;28;20041;-60
2021/12/02 02:02:20;;;;;;;4.45;1.88;;;6.50;99.90;;;;;;4180331;28;20028;-61
2021/12/02 02:04:23;;;;;;;8.27;2.00;;;6.60;99.90;;;;;;4162498;28;20444;-62
2021/12/02 02:06:32;;;;;;;;;;;6.50;99.90;;;;;;4166711;28;20494;-62
2021/12/02 02:08:34;;;;;;;10.15;2.20;;;6.50;99.90;;;;;;4183886;28;20002;-62
2021/12/02 02:10:39;;;;;;;4.35;1.40;;;6.40;99.90;;;;;;4177256;28;20036;-62
2021/12/02 02:12:40;;;;;;;4.82;1.83;;;6.40;99.90;;;;;;4174158;28;20037;-63
2021/12/02 02:14:42;;;;;;;6.63;2.10;;;6.50;99.90;;;;;;4172405;28;20029;-62
2021/12/02 02:16:43;;;;;;;8.48;1.98;;;6.50;99.90;;;;;;4171596;28;20029;-62
2021/12/02 02:18:44;;;;;;;6.78;2.13;;;6.40;99.90;;;;;;4176086;28;20096;-62
2021/12/02 02:22:52;;;;;;;6.38;1.77;;;6.40;99.90;;;;;;4175277;28;20029;-62
2021/12/02 02:24:53;;;;;;;5.97;1.50;;;6.40;99.90;;;;;;4175098;28;20395;-61
2021/12/02 02:26:54;;;;;;;4.00;1.48;;;6.40;99.90;;;;;;4183148;28;20345;-62
2021/12/02 02:28:56;;;;;;;5.85;1.83;;;6.40;99.90;;;;;;4183967;28;20039;-62
2021/12/02 02:30:57;;;;;;;4.80;1.43;;;6.40;99.90;;;;;;4183023;28;20422;-62
2021/12/02 02:32:57;;;;;;;4.35;1.45;;;6.30;99.90;;;;;;4183609;28;20303;-62
2021/12/02 02:34:58;;;;;;;3.85;1.20;;;6.30;99.90;;;;;;4177511;28;20468;-62
2021/12/02 02:37:02;;;;;;;4.97;1.48;;;6.30;99.90;;;;;;4175111;28;20037;-62
2021/12/02 02:39:05;;;;;;;3.67;1.33;;;6.30;99.90;;;;;;4167385;28;20026;-63
2021/12/02 02:41:08;;;;;;;4.68;1.60;;;6.30;99.90;;;;;;4171379;28;20068;-61
2021/12/02 02:43:10;;;;;;;8.23;1.40;;;6.30;99.90;;;;;;4162418;28;20115;-62
2021/12/02 02:45:11;;;;;;;4.65;1.20;;;6.40;99.90;;;;;;4171552;28;20029;-63
2021/12/02 02:47:11;;;;;;;3.42;0.90;;;6.40;99.90;;;;;;4174697;28;20535;-62
2021/12/02 02:49:13;;;;;;;4.30;1.45;;;6.40;99.90;;;;;;4177447;28;20075;-61
2021/12/02 02:51:14;;;;;;;2.87;1.10;;;6.40;99.90;;;;;;4169657;28;20042;-61
2021/12/02 02:53:20;;;;;;;4.28;0.93;;;6.40;99.90;;;;;;4174497;28;20369;-62
2021/12/02 02:55:24;;;;;;;6.97;1.40;;;6.30;99.90;;;;;;4170445;28;20041;-61
2021/12/02 02:57:28;;;;;;;3.13;1.17;;;6.30;99.90;;;;;;4176942;28;20033;-62
2021/12/02 02:59:43;;;;;;;6.50;1.67;;;6.30;99.90;;;;;;4171721;28;20033;-62
2021/12/02 03:01:49;;;;;;;7.93;1.58;;;6.30;99.90;;;;;;4177004;28;20041;-62
2021/12/02 03:04:12;;;;;;;4.30;1.00;;;6.30;99.90;;;;;;4171575;28;20483;-61
2021/12/02 03:08:19;;;;;;;4.13;0.88;;;6.20;99.90;;;;;;4168171;28;20109;-62
2021/12/02 03:12:30;;;;;;;4.10;1.30;;;6.20;99.90;;;;;;4173997;28;20108;-59
2021/12/02 03:14:48;;;;;;;2.67;1.20;;;6.20;99.90;;;;;;4177069;28;20033;-60
2021/12/02 03:16:49;;;;;;;5.57;1.23;;;6.20;99.90;;;;;;4177754;28;20056;-60
2021/12/02 03:18:53;;;;;;;8.20;1.42;;;6.20;99.90;;;;;;4182862;28;20029;-61
2021/12/02 03:20:55;;;;;;;6.75;1.63;;;6.20;99.90;;;;;;4181745;28;20094;-60
2021/12/02 03:22:56;;;;;;;;;;;6.20;99.90;;;;;;4182655;28;20064;-60
2021/12/02 03:24:57;;;;;;;5.53;1.17;;;6.20;99.90;;;;;;4179502;28;19909;-61
2021/12/02 03:26:57;;;;;;;6.05;1.17;;;6.10;99.90;;;;;;4170436;28;20461;-62
2021/12/02 03:28:59;;;;;;;10.13;1.77;;;6.10;99.90;;;;;;4173692;28;20044;-61
2021/12/02 03:31:02;;;;;;;6.57;1.52;;;6.20;99.90;;;;;;4172645;28;20021;-61
2021/12/02 03:33:03;;;;;;;3.22;1.40;;;6.10;99.90;;;;;;4158796;28;20060;-61
2021/12/02 03:35:05;;;;;;;7.57;1.40;;;6.00;99.90;;;;;;4170312;28;20037;-62
2021/12/02 03:37:06;;;;;;;4.90;1.20;;;6.00;99.90;;;;;;4171093;28;20034;-60
2021/12/02 03:39:09;;;;;;;6.75;1.27;;;6.00;99.90;;;;;;4175987;28;20075;-61
2021/12/02 03:41:10;;;;;;;3.40;1.10;;;6.00;99.90;;;;;;4173795;28;20049;-60
2021/12/02 03:43:10;;;;;;;3.83;1.13;;;5.90;99.90;;;;;;4170944;28;20080;-61
2021/12/02 03:45:11;;;;;;;4.95;0.98;;;5.90;99.90;;;;;;4170243;28;20369;-63
2021/12/02 03:47:12;;;;;;;3.65;1.05;;;5.90;99.90;;;;;;4171297;28;20037;-60
2021/12/02 03:49:13;;;;;;;5.20;1.38;;;5.90;99.90;;;;;;4178360;28;20029;-62
2021/12/02 03:51:14;;;;;;;3.72;1.08;;;5.90;99.90;;;;;;4171547;28;20037;-63
2021/12/02 03:53:14;;;;;;;4.82;1.10;;;5.80;99.90;;;;;;4175804;28;20025;-61
2021/12/02 03:55:15;;;;;;;4.93;0.93;;;5.80;99.90;;;;;;4170752;28;20033;-62
2021/12/02 03:57:15;;;;;;;5.13;1.10;;;5.80;99.90;;;;;;4171221;28;20153;-61
2021/12/02 03:59:16;;;;;;;6.15;0.88;;;5.70;99.90;;;;;;4170686;28;20037;-61
2021/12/02 04:01:18;;;;;;;4.95;1.30;;;5.60;99.90;;;;;;4170147;28;20037;-61
2021/12/02 04:03:19;;;;;;;2.85;0.73;;;5.60;99.90;;;;;;4171124;28;20103;-61
2021/12/02 04:05:19;;;;;;;5.10;0.98;;;5.50;99.90;;;;;;4173326;28;20052;-61
2021/12/02 04:07:23;;;;;;;3.83;1.33;;;5.50;99.90;;;;;;4171553;28;20034;-61
2021/12/02 04:09:27;;;;;;;3.95;1.23;;;5.60;99.90;;;;;;4182085;28;20033;-59
2021/12/02 04:12:14;;;;;;;3.05;0.82;;;5.60;99.90;;;;;;4181442;28;20451;-61
2021/12/02 04:14:20;;;;;;;4.75;0.80;;;5.50;99.90;;;;;;4168233;28;20120;-62
2021/12/02 04:16:21;;;;;;;4.30;0.88;;;5.50;99.90;;;;;;4164771;28;20033;-61
2021/12/02 04:18:22;;;;;;;2.17;1.02;;;5.60;99.90;;;;;;4165553;28;20037;-61
2021/12/02 04:20:24;;;;;;;4.70;1.10;;;5.50;99.90;;;;;;4164764;28;20072;-60
2021/12/02 04:22:25;;;;;;;5.28;1.08;;;5.50;99.90;;;;;;4169292;28;20048;-61
2021/12/02 04:24:26;;;;;;;3.38;1.02;;;5.40;99.90;;;;;;4170327;28;20521;-60
2021/12/02 04:26:27;;;;;;;3.22;0.82;;;5.40;99.90;;;;;;4169697;28;20533;-60
2021/12/02 04:28:28;;;;;;;2.95;0.68;;;5.40;99.90;;;;;;4170861;28;20439;-61
2021/12/02 04:30:29;;;;;;;2.08;0.80;;;5.40;99.90;;;;;;4169581;28;20032;-60
2021/12/02 04:32:29;;;;;;;5.35;0.93;;;5.40;99.90;;;;;;4170420;28;20024;-61
2021/12/02 04:34:30;;;;;;;3.03;0.63;;;5.40;99.90;;;;;;4170400;28;20040;-61
2021/12/02 04:36:31;;;;;;;4.68;0.90;;;5.40;99.90;;;;;;4169336;28;20045;-61
2021/12/02 04:38:31;;;;;;;3.33;1.05;;;5.40;99.90;;;;;;4170421;28;20468;-61
2021/12/02 04:40:32;;;;;;;1.75;0.60;;;5.40;99.90;;;;;;4169691;28;20045;-60
2021/12/02 04:42:33;;;;;;;6.35;1.08;;;5.40;99.90;;;;;;4173039;28;20072;-61
2021/12/02 04:44:34;;;;;;;5.40;1.05;;;5.30;99.90;;;;;;4171790;28;20034;-61
2021/12/02 04:46:35;;;;;;;2.38;0.68;;;5.20;99.90;;;;;;4169609;28;20035;-62
2021/12/02 04:48:35;;;;;;;1.65;0.65;;;5.30;99.90;;;;;;4152227;28;20580;-61
2021/12/02 04:50:36;;;;;;;2.33;0.63;;;5.30;99.90;;;;;;4174041;28;20029;-60
2021/12/02 04:52:38;;;;;;;1.70;0.65;;;5.20;99.90;;;;;;4169907;28;20037;-61
2021/12/02 04:54:39;;;;;;;3.53;0.85;;;5.30;99.90;;;;;;4170189;28;20030;-61
2021/12/02 04:56:40;;;;;;;2.17;0.68;;;5.30;99.90;;;;;;4169694;28;20041;-61
2021/12/02 04:58:40;;;;;;;2.83;1.00;;;5.40;99.90;;;;;;4169833;28;20108;-61
2021/12/02 05:00:41;;;;;;;3.15;0.98;;;5.40;99.90;;;;;;4171732;28;20044;-60
2021/12/02 05:02:43;;;;;;;3.70;0.95;;;5.40;99.90;;;;;;4180883;28;20456;-60
2021/12/02 05:04:43;;;;;;;3.17;1.20;;;5.40;99.90;;;;;;4181540;28;20100;-61
2021/12/02 05:06:44;;;;;;;3.72;1.10;;;5.40;99.90;;;;;;4180591;28;20029;-62
2021/12/02 05:08:45;;;;;;;2.05;0.90;;;5.40;99.90;;;;;;4180944;28;20037;-61
2021/12/02 05:10:45;;;;;;;1.52;0.93;;;5.40;99.90;;;;;;4180518;28;20218;-62
2021/12/02 05:12:46;;;;;;;3.45;0.90;;;5.40;99.90;;;;;;4177668;28;20047;-62
2021/12/02 05:14:47;;;;;;;2.97;1.08;;;5.40;99.90;;;;;;4173845;28;20589;-62
2021/12/02 05:16:47;;;;;;;1.55;0.85;;;5.40;99.90;;;;;;4175039;28;20475;-62
2021/12/02 05:18:48;;;;;;;4.28;1.20;;;5.50;99.90;;;;;;4174400;28;20079;-60
2021/12/02 05:20:49;;;;;;;4.35;1.33;;;5.50;99.90;;;;;;4175138;28;20044;-61
2021/12/02 05:22:50;;;;;;;3.47;1.20;;;5.50;99.90;;;;;;4171130;28;20438;-61
2021/12/02 05:24:50;;;;;;;5.93;1.27;;;5.50;99.90;;;;;;4179589;28;20525;-61
2021/12/02 05:26:51;;;;;;;7.38;2.05;;;5.50;99.90;;;;;;4170129;28;20034;-61
2021/12/02 05:28:53;;;;;;;4.38;1.20;;;5.50;99.90;;;;;;4176720;28;20395;-61
2021/12/02 05:30:53;;;;;;;4.93;1.33;;;5.50;99.90;;;;;;4172563;28;20025;-60
2021/12/02 05:32:54;;;;;;;2.92;1.33;;;5.60;99.90;;;;;;4182375;28;20498;-61
2021/12/02 05:34:55;;;;;;;5.10;1.40;;;5.60;99.90;;;;;;4178312;28;20041;-61
2021/12/02 05:36:55;;;;;;;6.30;1.92;;;5.60;99.90;;;;;;4178087;28;20258;-61
2021/12/02 05:38:56;;;;;;;4.22;1.70;;;5.50;99.90;;;;;;4175883;28;20038;-61
2021/12/02 05:40:57;;;;;;;8.10;1.35;;;5.50;99.90;;;;;;4172270;28;20112;-62
2021/12/02 05:42:57;;;;;;;4.90;1.52;;;5.50;99.90;;;;;;4178029;28;20033;-62
2021/12/02 05:44:58;;;;;;;4.43;1.50;;;5.50;99.90;;;;;;4167867;28;20033;-61
2021/12/02 05:46:59;;;;;;;6.30;1.80;;;5.50;99.90;;;;;;4172527;28;20055;-62
2021/12/02 05:48:59;;;;;;;2.80;1.27;;;5.50;99.90;;;;;;4177893;28;20476;-62
2021/12/02 05:51:00;;;;;;;5.65;1.25;;;5.50;99.90;;;;;;4173906;28;20511;-62
2021/12/02 05:53:00;;;;;;;4.05;1.60;;;5.50;99.90;;;;;;4172817;28;20041;-62
2021/12/02 05:55:01;;;;;;;5.03;1.52;;;5.50;99.90;;;;;;4173000;28;20111;-62
2021/12/02 05:57:02;;;;;;;2.85;1.10;;;5.40;99.90;;;;;;4172267;28;20037;-62
2021/12/02 05:59:03;;;;;;;4.80;1.70;;;5.50;99.90;;;;;;4177826;28;20049;-62
2021/12/02 06:01:04;;;;;;;3.38;1.50;;;5.50;99.90;;;;;;4171766;28;20057;-61
2021/12/02 06:03:04;;;;;;;4.13;1.67;;;5.50;99.90;;;;;;4177825;28;20446;-62
2021/12/02 06:05:06;;;;;;;5.35;1.30;;;5.50;99.90;;;;;;4177128;28;20025;-62
2021/12/02 06:07:06;;;;;;;3.67;1.40;;;5.50;99.90;;;;;;4172073;28;20400;-61
2021/12/02 06:09:07;;;;;;;4.97;1.33;;;5.50;99.90;;;;;;4172434;28;20026;-62
2021/12/02 06:11:08;;;;;;;3.33;1.42;;;5.60;99.90;;;;;;4175227;28;20029;-61
2021/12/02 06:13:09;;;;;;;5.57;1.30;;;5.60;99.90;;;;;;4172277;28;20073;-61
2021/12/02 06:15:11;;;;;;;4.03;1.60;;;5.50;99.90;;;;;;4171430;28;20365;-62
2021/12/02 06:17:11;;;;;;;4.75;1.45;;;5.50;99.90;;;;;;4177901;28;20085;-61
2021/12/02 06:19:12;;;;;;;4.43;1.42;;;5.50;99.90;;;;;;4172852;28;20036;-61
2021/12/02 06:21:13;;;;;;;4.45;1.75;;;5.50;99.90;;;;;;4171702;28;20045;-62
2021/12/02 06:23:13;;;;;;;3.75;1.45;;;5.40;99.90;;;;;;4172434;28;20045;-61
2021/12/02 06:27:16;;;;;;;3.63;1.60;;;5.40;99.90;;;;;;4173002;28;20456;-62
2021/12/02 06:29:16;;;;;;;9.05;1.33;;;5.40;99.90;;;;;;4178111;28;20094;-62
2021/12/02 06:31:17;;;;;;;9.25;2.17;;;5.40;99.90;;;;;;4170270;28;20033;-63
2021/12/02 06:33:17;;;;;;;2.63;1.20;;;5.40;99.90;;;;;;4173885;28;20032;-62
2021/12/02 06:35:18;;;;;;;8.27;1.60;;;5.30;99.90;;;;;;4169489;28;20040;-61
2021/12/02 06:37:19;;;;;;;6.72;2.20;;;5.30;99.90;;;;;;4174623;28;20025;-61
2021/12/02 06:39:20;;;;;;;5.68;2.40;;;5.30;99.90;;;;;;4179596;28;20028;-61
2021/12/02 06:41:20;;;;;;;7.30;2.17;;;5.20;99.90;;;;;;4175006;28;20044;-61
2021/12/02 06:43:21;;;;;;;5.38;1.80;;;5.20;99.90;;;;;;4166680;28;20053;-61
2021/12/02 06:45:22;;;;;;;4.03;1.55;;;5.20;99.90;;;;;;4169075;28;20112;-60
2021/12/02 06:47:27;;;;;;;4.22;1.48;;;5.10;99.90;;;;;;4172156;28;20025;-62
2021/12/02 06:49:30;;;;;;;4.10;1.27;;;5.20;99.90;;;;;;4166682;28;20045;-62
2021/12/02 06:51:31;;;;;;;4.55;1.52;;;5.20;99.90;;;;;;4171674;28;20493;-61
2021/12/02 06:53:31;;;;;;;7.53;1.60;;;5.30;99.90;;;;;;4176775;28;20104;-61
2021/12/02 06:55:32;;;;;;;8.60;1.80;;;5.20;99.90;;;;;;4172188;28;20025;-61
2021/12/02 06:57:33;;;;;;;9.43;1.85;;;5.20;99.90;;;;;;4171755;28;20037;-61
2021/12/02 06:59:35;;;;;;;4.25;1.30;;;5.20;99.90;;;;;;4171581;28;20436;-61
2021/12/02 07:01:35;;;;;;;7.70;1.80;;;5.20;99.90;;;;;;4175159;28;20101;-62
2021/12/02 07:03:36;;;;;;;7.00;1.27;;;5.20;99.90;;;;;;4177049;28;20427;-61
2021/12/02 07:05:36;;;;;;;3.33;1.10;;;5.10;99.90;;;;;;4172125;28;20060;-62
2021/12/02 07:07:38;;;;;;;4.72;1.20;;;5.10;99.90;;;;;;4171985;28;20034;-61
2021/12/02 07:09:38;;;;;;;2.70;1.33;;;5.10;99.90;;;;;;4175987;28;20033;-61
2021/12/02 07:11:39;;;;;;;4.68;1.50;;;5.10;99.90;;;;;;4172072;28;20523;-61
2021/12/02 07:13:40;;;;;;;4.35;1.13;;;5.10;99.90;;;;;;4171731;28;20524;-61
2021/12/02 07:16:02;;;;;;;2.40;1.15;;;5.10;99.90;;;;;;4171331;28;20087;-61
2021/12/02 07:18:10;;;;;;;3.42;0.90;;;5.20;99.90;;;;;;4175856;28;20053;-61
2021/12/02 07:20:12;;;;;;;3.50;1.05;;;5.10;99.90;;;;;;4175778;28;20036;-62
2021/12/02 07:22:12;;;;;;;6.60;1.50;;;5.10;99.90;;;;;;4171754;28;20032;-60
2021/12/02 07:24:15;;;;;;;5.18;1.05;;;5.10;99.90;;;;;;4176727;28;20025;-61
2021/12/02 07:26:16;;;;;;;3.33;1.20;;;5.10;99.90;;;;;;4171961;28;20117;-61
2021/12/02 07:28:18;;;;;;;4.72;1.45;;;5.10;99.90;;;;;;4180939;28;20723;-61
2021/12/02 07:30:18;;;;;;;5.97;1.20;;;5.10;99.90;;;;;;4175134;28;20078;-60
2021/12/02 07:32:19;;;;;;;2.38;0.90;;;5.10;99.90;;;;;;4171077;28;20155;-61
2021/12/02 07:34:23;;;;;;;4.13;1.30;;;5.10;99.90;;;;;;4168688;28;20026;-61
2021/12/02 07:36:24;;;;;;;1.98;0.80;;;5.20;99.90;;;;;;4165669;28;20036;-61
2021/12/02 07:38:25;;;;;;;3.38;0.95;;;5.10;99.90;;;;;;4171201;28;20457;-61
2021/12/02 07:40:28;;;;;;;7.63;1.27;;;5.10;99.90;;;;;;4175545;28;20048;-61
2021/12/02 07:42:28;;;;;;;4.50;1.15;;;5.00;99.90;;;;;;4175612;28;20120;-61
2021/12/02 07:44:29;;;;;;;4.13;1.08;;;5.00;99.90;;;;;;4171432;28;20041;-62
2021/12/02 07:46:31;;;;;;;6.22;0.85;;;4.90;99.90;;;;;;4169803;28;20102;-61
2021/12/02 07:48:33;;;;;;;2.70;1.00;;;4.90;99.90;;;;;;4175370;28;20083;-61
2021/12/02 07:50:36;;;;;;;2.53;0.98;;;5.00;99.90;;;;;;4170317;28;20540;-61
2021/12/02 07:52:44;;;;;;;2.53;0.82;;;5.00;99.90;;;;;;4173796;28;20079;-61
2021/12/02 07:54:46;;;;;;;2.60;0.93;;;5.00;99.90;;;;;;4170877;28;20564;-63
2021/12/02 07:56:47;;;;;;;;;;;5.00;99.90;;;;;;4168863;28;20026;-62
2021/12/02 07:58:49;;;;;;;1.60;0.70;;;4.90;99.90;;;;;;4173510;28;19927;-62
2021/12/02 08:00:50;;;;;;;1.55;0.57;;;5.00;99.90;;;;;;4170018;28;20102;-62
2021/12/02 08:03:31;;;;;;;5.22;1.05;;;5.00;99.90;;;;;;4170216;28;20130;-62
2021/12/02 08:05:32;;;;;;;1.08;0.60;;;5.00;99.90;;;;;;4157420;28;20029;-62
2021/12/02 08:07:33;;;;;;;1.17;0.70;;;5.10;99.90;;;;;;4177049;28;20123;-61
2021/12/02 08:09:33;;;;;;;1.55;0.70;;;5.10;99.90;;;;;;4170664;28;20032;-62
2021/12/02 08:11:35;;;;;;;1.90;0.82;;;5.10;99.90;;;;;;4169837;28;20543;-61
2021/12/02 08:13:36;;;;;;;2.17;0.80;;;5.10;99.90;;;;;;4170380;28;20033;-62
2021/12/02 08:15:37;;;;;;;3.60;0.80;;;5.20;99.90;;;;;;4172297;28;20376;-62
2021/12/02 08:17:38;;;;;;;1.08;0.68;;;5.30;99.90;;;;;;4171604;28;20060;-62
2021/12/02 08:19:38;;;;;;;1.60;0.80;;;5.30;99.90;;;;;;4170579;28;20069;-62
2021/12/02 08:21:40;;;;;;;1.83;0.67;;;5.30;99.90;;;;;;4173225;28;20055;-62
2021/12/02 08:23:41;;;;;;;2.72;0.70;;;5.40;99.90;;;;;;4171892;28;20030;-62
2021/12/02 08:25:41;;;;;;;1.08;0.73;;;5.40;99.90;;;;;;4169915;28;20030;-62
2021/12/02 08:27:42;;;;;;;2.65;0.80;;;5.40;99.90;;;;;;4170337;28;20037;-62
2021/12/02 08:29:43;;;;;;;3.25;0.70;;;5.40;99.90;;;;;;4168424;28;20029;-62
2021/12/02 08:31:44;;;;;;;3.67;0.85;;;5.40;99.90;;;;;;4168897;28;20029;-61
2021/12/02 08:33:48;;;;;;;2.28;1.15;;;5.30;99.90;;;;;;4176385;28;20079;-62
2021/12/02 08:35:49;;;;;;;2.42;1.27;;;5.30;99.90;;;;;;4171953;28;20056;-65
2021/12/02 08:37:53;;;;;;;2.35;1.10;;;5.30;99.90;;;;;;4175671;28;20031;-62
2021/12/02 08:39:55;;;;;;;2.25;1.40;;;5.40;99.90;;;;;;4170632;28;20029;-62
2021/12/02 08:41:57;;;;;;;1.83;1.35;;;5.30;99.90;;;;;;4170808;28;20073;-62
2021/12/02 08:43:57;;;;;;;2.90;1.50;;;5.30;99.90;;;;;;4171810;28;20040;-62
2021/12/02 08:45:58;;;;;;;3.38;1.50;;;5.30;99.90;;;;;;4173979;28;20053;-62
2021/12/02 08:47:59;;;;;;;2.67;1.55;;;5.20;99.90;;;;;;4170268;28;20030;-62
2021/12/02 08:50:00;;;;;;;3.83;1.70;;;5.20;99.90;;;;;;4170643;28;20032;-62
2021/12/02 08:52:01;;;;;;;5.28;1.88;;;5.20;99.90;;;;;;4174516;28;20432;-62
2021/12/02 08:54:01;;;;;;;2.95;1.50;;;5.20;99.90;;;;;;4171664;28;20108;-62
2021/12/02 08:56:02;;;;;;;4.03;1.60;;;5.20;99.90;;;;;;4171064;28;20053;-62
2021/12/02 08:58:04;;;;;;;2.90;1.50;;;5.20;99.90;;;;;;4175337;28;20116;-62
2021/12/02 09:00:08;;;;;;;3.13;1.45;;;5.10;99.90;;;;;;4170974;28;20026;-62
2021/12/02 09:02:08;;;;;;;2.85;1.50;;;5.10;99.90;;;;;;4170070;28;20037;-62
2021/12/02 09:04:09;;;;;;;1.83;1.30;;;5.20;99.90;;;;;;4169755;28;20499;-62
2021/12/02 09:06:11;;;;;;;2.75;1.45;;;5.20;99.90;;;;;;4169404;28;20359;-62
2021/12/02 09:08:12;;;;;;;4.38;1.42;;;5.20;99.90;;;;;;4171539;28;20025;-62
2021/12/02 09:10:13;;;;;;;4.40;1.40;;;5.20;99.90;;;;;;4172514;28;20029;-63
2021/12/02 09:12:14;;;;;;;2.10;1.20;;;5.30;99.90;;;;;;4170125;28;20028;-62
2021/12/02 09:14:15;;;;;;;2.25;1.63;;;5.40;99.90;;;;;;4169970;28;20434;-62
2021/12/02 09:16:16;;;;;;;2.50;1.40;;;5.60;99.90;;;;;;4169404;28;20505;-62
2021/12/02 09:18:16;;;;;;;2.58;1.25;;;5.90;99.90;;;;;;4170066;28;20092;-62
2021/12/02 09:20:18;;;;;;;1.90;1.20;;;6.20;99.90;;;;;;4169871;28;20029;-63
2021/12/02 09:22:18;;;;;;;2.10;1.20;;;6.50;99.90;;;;;;4173782;28;20029;-62
2021/12/02 09:24:20;;;;;;;2.63;1.20;;;6.60;99.90;;;;;;4157339;28;20491;-62
2021/12/02 09:26:21;;;;;;;2.50;1.27;;;6.70;99.90;;;;;;4169378;28;20434;-62
2021/12/02 09:28:22;;;;;;;2.65;1.20;;;6.80;99.90;;;;;;4171597;28;20072;-62
2021/12/02 09:30:24;;;;;;;3.03;1.40;;;6.60;99.90;;;;;;4174149;28;20044;-63
2021/12/02 09:32:26;;;;;;;3.22;1.10;;;6.60;99.90;;;;;;4173948;28;20038;-62
2021/12/02 09:34:27;;;;;;;3.78;1.50;;;6.60;99.90;;;;;;4170957;28;20033;-62
2021/12/02 09:36:27;;;;;;;4.75;1.48;;;6.50;99.90;;;;;;4171305;28;20025;-64
2021/12/02 09:38:28;;;;;;;1.50;1.38;;;6.40;99.90;;;;;;4174707;28;20036;-63
2021/12/02 09:40:28;;;;;;;2.10;1.20;;;6.30;99.90;;;;;;4172832;28;20071;-63
2021/12/02 09:42:29;;;;;;;3.65;1.67;;;6.30;99.90;;;;;;4169757;28;20040;-63
2021/12/02 09:44:30;;;;;;;2.95;1.17;;;6.20;99.90;;;;;;4170800;28;20033;-62
2021/12/02 09:46:31;;;;;;;3.35;1.33;;;6.10;99.90;;;;;;4173103;28;20369;-62
2021/12/02 09:48:33;;;;;;;2.50;1.67;;;6.00;99.90;;;;;;4170331;28;20037;-63
2021/12/02 09:50:38;;;;;;;6.40;1.52;;;5.90;99.90;;;;;;4172179;28;20037;-63
2021/12/02 09:52:41;;;;;;;3.20;1.60;;;5.80;99.90;;;;;;4173131;28;20364;-62
2021/12/02 09:55:03;;;;;;;2.53;1.60;;;5.80;99.90;;;;;;4172110;28;20025;-62
2021/12/02 09:57:06;;;;;;;5.53;1.70;;;5.80;99.90;;;;;;4169561;28;20053;-62
2021/12/02 09:59:10;;;;;;;2.75;1.50;;;5.70;99.90;;;;;;4171406;28;20026;-62
2021/12/02 10:01:14;;;;;;;2.72;1.42;;;5.80;99.90;;;;;;4176914;28;20049;-62
2021/12/02 10:05:37;;;;;;;2.60;1.50;;;5.80;99.90;;;;;;4166453;28;20432;-61
2021/12/02 10:07:53;;;;;;;5.00;1.73;;;5.90;99.90;;;;;;4178406;28;20037;-61
2021/12/02 10:12:11;;;;;;;3.47;1.40;;;5.90;99.90;;;;;;4178669;28;20021;-61
2021/12/02 10:14:39;;;;;;;2.85;1.48;;;5.90;99.90;;;;;;4176347;28;20065;-61
2021/12/02 10:16:43;;;;;;;6.43;1.88;;;5.90;99.90;;;;;;4169915;28;20046;-64
2021/12/02 10:18:54;;;;;;;4.05;1.77;;;5.90;99.90;;;;;;4176063;28;20555;-61
2021/12/02 10:20:54;;;;;;;5.18;1.88;;;6.00;99.90;;;;;;4173288;28;20379;-62
2021/12/02 10:23:22;;;;;;;3.63;1.35;;;6.00;99.90;;;;;;4175972;28;20121;-62
2021/12/02 10:25:33;;;;;;;4.40;1.60;;;6.00;99.90;;;;;;4171708;28;20079;-64
2021/12/02 10:27:34;;;;;;;4.13;1.48;;;5.90;99.90;;;;;;4177062;28;20032;-62
2021/12/02 10:29:39;;;;;;;3.22;1.20;;;5.90;99.90;;;;;;4174636;28;20072;-62
2021/12/02 10:31:42;;;;;;;2.33;0.82;;;5.90;99.90;;;;;;4173416;28;20061;-61
2021/12/02 10:33:53;;;;;;;4.70;1.25;;;5.90;99.90;;;;;;4172604;28;20022;-62
2021/12/02 10:35:53;;;;;;;1.52;0.65;;;5.80;99.90;;;;;;4170397;28;20064;-62
2021/12/02 10:37:54;;;;;;;4.32;0.95;;;5.70;99.90;;;;;;4179290;28;20029;-62
2021/12/02 10:40:11;;;;;;;3.55;1.02;;;5.60;99.90;;;;;;4171851;28;20036;-61
2021/12/02 10:42:16;;;;;;;2.10;0.80;;;5.60;99.90;;;;;;4166003;28;20044;-61
2021/12/02 10:44:24;;;;;;;2.88;1.00;;;5.60;99.90;;;;;;4175210;28;20025;-62
2021/12/02 10:46:25;;;;;;;2.42;0.93;;;5.60;99.90;;;;;;4171386;28;20108;-62
2021/12/02 10:48:50;;;;;;;2.22;1.10;;;5.70;99.90;;;;;;4172042;28;20021;-62
2021/12/02 10:50:50;;;;;;;4.68;1.10;;;5.60;99.90;;;;;;4175730;28;20059;-62
2021/12/02 10:52:51;;;;;;;2.50;1.00;;;5.60;99.90;;;;;;4172012;28;20061;-62
2021/12/02 10:55:03;;;;;;;3.53;1.05;;;5.50;99.90;;;;;;4170751;28;20025;-61
2021/12/02 10:57:24;;;;;;;4.65;0.80;;;5.60;99.90;;;;;;4176959;28;20032;-62
2021/12/02 10:59:33;;;;;;;6.78;1.17;;;5.60;99.90;;;;;;4166670;28;20444;-62
2021/12/02 11:01:38;;;;;;;5.22;0.93;;;5.60;99.90;;;;;;4174065;28;20447;-61
2021/12/02 11:04:05;;;;;;;8.38;1.60;;;5.50;99.90;;;;;;4171675;28;20090;-62